| time (UTC) | temp F | wind direction | speed knots | gust knots | rain 1hr in | rain 24hr in | rain mn in | humidity % | barometer mb |
| 20260507112703 | 59 | 124 | 0.9 | 3.5 | 0.00 | 0.00 | 0.00 | 27 | 1011.7 |
| 20260507111805 | 56 | 347 | 0.9 | 7.8 | 0.00 | 0.00 | 0.00 | 27 | 1011.8 |
| 20260507110903 | 55 | 354 | 1.7 | 7.8 | 0.00 | 0.00 | 0.00 | 28 | 1011.8 |
| 20260507110005 | 58 | 335 | 2.6 | 7.0 | 0.00 | 0.00 | 0.00 | 26 | 1011.7 |
| 20260507105403 | 57 | 356 | 3.5 | 7.0 | 0.00 | 0.00 | 0.00 | 26 | 1011.6 |
| 20260507104504 | 58 | 302 | 1.7 | 3.5 | 0.00 | 0.00 | 0.00 | 28 | 1011.6 |
| 20260507103603 | 57 | 281 | 0.9 | 3.5 | 0.00 | 0.00 | 0.00 | 29 | 1011.6 |
| 20260507102705 | 56 | 318 | 1.7 | 15.6 | 0.00 | 0.00 | 0.00 | 31 | 1011.5 |
| 20260507101805 | 54 | 338 | 7.0 | 15.6 | 0.00 | 0.00 | 0.00 | 33 | 1011.5 |
| 20260507100903 | 55 | 74 | 0.9 | 5.2 | 0.00 | 0.00 | 0.00 | 32 | 1011.3 |
| 20260507100004 | 56 | 346 | 0.9 | 6.1 | 0.00 | 0.00 | 0.00 | 33 | 1011.6 |
| 20260507095403 | 56 | 356 | 2.6 | 6.1 | 0.00 | 0.00 | 0.00 | 34 | 1011.4 |
| 20260507094504 | 58 | 152 | 0.9 | 3.5 | 0.00 | 0.00 | 0.00 | 34 | 1011.3 |
| 20260507093603 | 55 | 158 | 1.7 | 6.1 | 0.00 | 0.00 | 0.00 | 36 | 1011.3 |
| 20260507092703 | 54 | 152 | 3.5 | 3.5 | 0.00 | 0.00 | 0.00 | 38 | 1011.3 |
| 20260507091805 | 55 | 28 | 1.7 | 5.2 | 0.00 | 0.00 | 0.00 | 42 | 1011.2 |
| 20260507090905 | 53 | 19 | 1.7 | 3.5 | 0.00 | 0.00 | 0.00 | 43 | 1011.3 |
| 20260507090006 | 54 | 53 | 0.9 | 5.2 | 0.00 | 0.00 | 0.00 | 44 | 1011.2 |
| 20260507085403 | 55 | 83 | 1.7 | 3.5 | 0.00 | 0.00 | 0.00 | 44 | 1011.1 |
| 20260507084503 | 53 | 85 | 1.7 | 6.1 | 0.00 | 0.00 | 0.00 | 47 | 1011.2 |
| 20260507083624 | 52 | 99 | 4.3 | 6.1 | 0.00 | 0.00 | 0.00 | 49 | 1011.2 |
| 20260507082703 | 51 | 113 | 1.7 | 5.2 | 0.00 | 0.00 | 0.00 | 50 | 1011.2 |
| 20260507081824 | 52 | 114 | 0.9 | 5.2 | 0.00 | 0.00 | 0.00 | 48 | 1011.1 |
| 20260507080907 | 50 | 95 | 3.5 | 5.2 | 0.00 | 0.00 | 0.00 | 50 | 1011.0 |
| 20260507080025 | 51 | 94 | 1.7 | 3.5 | 0.00 | 0.00 | 0.00 | 50 | 1011.0 |
| 20260507075403 | 51 | 20 | 1.7 | 3.5 | 0.00 | 0.00 | 0.00 | 49 | 1010.9 |
| 20260507074505 | 50 | 42 | 1.7 | 3.5 | 0.00 | 0.00 | 0.00 | 49 | 1010.7 |
| 20260507073624 | 50 | 85 | 1.7 | 3.5 | 0.00 | 0.00 | 0.00 | 49 | 1011.1 |
| 20260507072703 | 50 | 91 | 0.9 | 3.5 | 0.00 | 0.00 | 0.00 | 50 | 1010.7 |
| 20260507071803 | 48 | 74 | 1.7 | 3.5 | 0.00 | 0.00 | 0.00 | 52 | 1010.7 |
| 20260507070905 | 48 | 73 | 0.9 | 3.5 | 0.00 | 0.00 | 0.00 | 52 | 1010.9 |
| 20260507070006 | 48 | 90 | 1.7 | 3.5 | 0.00 | 0.00 | 0.00 | 54 | 1010.7 |
| 20260507065403 | 48 | 90 | 1.7 | 3.5 | 0.00 | 0.00 | 0.00 | 56 | 1010.5 |
| 20260507064507 | 47 | 88 | 2.6 | 3.5 | 0.00 | 0.00 | 0.00 | 56 | 1010.7 |
| 20260507063603 | 46 | 88 | 0.9 | 3.5 | 0.00 | 0.00 | 0.00 | 58 | 1010.7 |
| 20260507062703 | 45 | 90 | 1.7 | 3.5 | 0.00 | 0.00 | 0.00 | 61 | 1010.5 |
| 20260507061805 | 43 | 90 | 1.7 | 3.5 | 0.00 | 0.00 | 0.00 | 64 | 1010.4 |
| 20260507060926 | 43 | 90 | 1.7 | 3.5 | 0.00 | 0.00 | 0.00 | 65 | 1010.5 |
| 20260507060005 | 43 | 90 | 1.7 | 3.5 | 0.00 | 0.00 | 0.00 | 64 | 1010.5 |
| 20260507055403 | 43 | 90 | 0.0 | 3.5 | 0.00 | 0.00 | 0.00 | 64 | 1010.7 |
| 20260507054524 | 44 | 102 | 0.9 | 3.5 | 0.00 | 0.00 | 0.00 | 63 | 1010.4 |
| 20260507053603 | 41 | 102 | 0.0 | 3.5 | 0.00 | 0.00 | 0.00 | 68 | 1010.4 |
| 20260507052705 | 41 | 94 | 0.9 | 3.5 | 0.00 | 0.00 | 0.00 | 67 | 1010.3 |
| 20260507051804 | 41 | 100 | 1.7 | 3.5 | 0.00 | 0.00 | 0.00 | 67 | 1010.3 |
| 20260507050903 | 41 | 110 | 1.7 | 1.7 | 0.00 | 0.00 | 0.00 | 67 | 1010.2 |
| 20260507050003 | 39 | 112 | 0.9 | 3.5 | 0.00 | 0.00 | 0.00 | 70 | 1010.3 |
| 20260507045405 | 39 | 115 | 0.9 | 3.5 | 0.00 | 0.00 | 0.00 | 70 | 1010.2 |
| 20260507044503 | 39 | 122 | 1.7 | 3.5 | 0.00 | 0.00 | 0.00 | 71 | 1010.2 |
| 20260507043605 | 39 | 112 | 0.9 | 1.7 | 0.00 | 0.00 | 0.00 | 72 | 1010.1 |
| 20260507042703 | 39 | 112 | 0.0 | 1.7 | 0.00 | 0.00 | 0.00 | 72 | 1009.9 |
| 20260507041803 | 39 | 135 | 0.0 | 1.7 | 0.00 | 0.00 | 0.00 | 70 | 1010.0 |
| 20260507040903 | 39 | 132 | 0.9 | 1.7 | 0.00 | 0.00 | 0.00 | 70 | 1009.8 |
| 20260507040004 | 39 | 75 | 0.9 | 1.7 | 0.00 | 0.00 | 0.00 | 70 | 1009.7 |
| 20260507035403 | 39 | 45 | 0.0 | 1.7 | 0.00 | 0.00 | 0.00 | 70 | 1009.8 |
| 20260507034503 | 39 | 0 | 0.0 | 0.0 | 0.00 | 0.00 | 0.00 | 71 | 1009.7 |
| 20260507033603 | 38 | 0 | 0.0 | 0.0 | 0.00 | 0.00 | 0.00 | 71 | 1009.7 |
| 20260507032705 | 38 | 45 | 0.0 | 1.7 | 0.00 | 0.00 | 0.00 | 72 | 1009.7 |
| 20260507031803 | 37 | 0 | 0.0 | 0.0 | 0.00 | 0.00 | 0.00 | 72 | 1009.6 |
| 20260507030924 | 37 | 0 | 0.0 | 0.0 | 0.00 | 0.00 | 0.00 | 71 | 1009.7 |
| 20260507030005 | 38 | 0 | 0.0 | 0.0 | 0.00 | 0.00 | 0.00 | 70 | 1009.6 |
| 20260507025404 | 38 | 45 | 0.0 | 1.7 | 0.00 | 0.00 | 0.00 | 71 | 1009.6 |
| 20260507024503 | 37 | 0 | 0.0 | 0.0 | 0.00 | 0.00 | 0.00 | 71 | 1009.7 |
| 20260507023603 | 38 | 0 | 0.0 | 0.0 | 0.00 | 0.00 | 0.00 | 70 | 1009.6 |
| 20260507022703 | 38 | 0 | 0.0 | 0.0 | 0.00 | 0.00 | 0.00 | 70 | 1009.6 |
| 20260507021803 | 37 | 0 | 0.0 | 0.0 | 0.00 | 0.00 | 0.00 | 70 | 1009.6 |
| 20260507020905 | 37 | 0 | 0.0 | 0.0 | 0.00 | 0.00 | 0.00 | 70 | 1009.6 |
| 20260507020003 | 37 | 45 | 0.0 | 1.7 | 0.00 | 0.00 | 0.00 | 69 | 1009.4 |
| 20260507015404 | 37 | 50 | 0.0 | 3.5 | 0.00 | 0.00 | 0.00 | 69 | 1009.6 |
| 20260507014503 | 37 | 67 | 0.9 | 1.7 | 0.00 | 0.00 | 0.00 | 70 | 1009.4 |
| 20260507013603 | 37 | 90 | 0.0 | 1.7 | 0.00 | 0.00 | 0.00 | 71 | 1009.3 |
| 20260507012703 | 37 | 80 | 0.0 | 1.7 | 0.00 | 0.00 | 0.00 | 70 | 1009.5 |
| 20260507011804 | 37 | 90 | 0.9 | 1.7 | 0.00 | 0.00 | 0.00 | 68 | 1009.5 |
| 20260507010903 | 37 | 90 | 0.0 | 1.7 | 0.00 | 0.00 | 0.00 | 68 | 1009.3 |
| 20260507010003 | 37 | 90 | 1.7 | 1.7 | 0.00 | 0.00 | 0.00 | 68 | 1009.5 |
| 20260507005405 | 37 | 90 | 0.0 | 1.7 | 0.00 | 0.00 | 0.00 | 69 | 1009.4 |
| 20260507004503 | 37 | 90 | 0.0 | 1.7 | 0.00 | 0.00 | 0.00 | 70 | 1009.2 |
| 20260507003603 | 37 | 90 | 0.0 | 1.7 | 0.00 | 0.00 | 0.00 | 70 | 1009.2 |
| 20260507002703 | 37 | 90 | 0.9 | 1.7 | 0.00 | 0.00 | 0.00 | 69 | 1009.1 |
| 20260507001803 | 37 | 90 | 1.7 | 1.7 | 0.00 | 0.00 | 0.00 | 70 | 1008.9 |
| 20260507000903 | 37 | 0 | 0.0 | 0.0 | 0.00 | 0.00 | 0.00 | 69 | 1009.2 |
| 20260507000006 | 37 | 0 | 0.0 | 0.0 | 0.00 | 0.00 | 0.00 | 68 | 1009.2 |
| 20260506235403 | 37 | 90 | 0.0 | 1.7 | 0.00 | 0.00 | 0.00 | 66 | 1009.0 |
| 20260506234503 | 37 | 93 | 0.9 | 3.5 | 0.00 | 0.00 | 0.00 | 63 | 1008.8 |
| 20260506233603 | 38 | 92 | 1.7 | 3.5 | 0.00 | 0.00 | 0.00 | 61 | 1008.8 |
| 20260506232703 | 39 | 103 | 0.9 | 3.5 | 0.00 | 0.00 | 0.00 | 58 | 1008.7 |
| 20260506231803 | 41 | 132 | 1.7 | 3.5 | 0.00 | 0.00 | 0.00 | 54 | 1008.8 |
| 20260506230905 | 42 | 161 | 1.7 | 6.1 | 0.00 | 0.00 | 0.00 | 52 | 1008.8 |
| 20260506230024 | 42 | 166 | 3.5 | 6.1 | 0.00 | 0.00 | 0.00 | 51 | 1008.5 |
| 20260506225405 | 42 | 181 | 2.6 | 6.1 | 0.00 | 0.00 | 0.00 | 51 | 1008.5 |
| 20260506224503 | 42 | 182 | 3.5 | 6.1 | 0.00 | 0.00 | 0.00 | 51 | 1008.8 |
| 20260506223605 | 43 | 180 | 3.5 | 9.6 | 0.00 | 0.00 | 0.00 | 50 | 1008.4 |
| 20260506222703 | 43 | 184 | 4.3 | 12.2 | 0.00 | 0.00 | 0.00 | 49 | 1008.5 |
| 20260506221803 | 43 | 195 | 4.3 | 12.2 | 0.00 | 0.00 | 0.00 | 48 | 1008.5 |
| 20260506220903 | 43 | 200 | 3.5 | 9.6 | 0.00 | 0.00 | 0.00 | 49 | 1008.6 |
| 20260506220004 | 44 | 181 | 4.3 | 9.6 | 0.00 | 0.00 | 0.00 | 48 | 1008.4 |
| 20260506215403 | 44 | 174 | 3.5 | 9.6 | 0.00 | 0.00 | 0.00 | 48 | 1008.4 |
| 20260506214505 | 44 | 186 | 2.6 | 7.8 | 0.00 | 0.00 | 0.00 | 47 | 1008.4 |
| 20260506213603 | 44 | 161 | 3.5 | 7.0 | 0.00 | 0.00 | 0.00 | 47 | 1008.4 |
| 20260506212724 | 45 | 179 | 4.3 | 9.6 | 0.00 | 0.00 | 0.00 | 46 | 1008.4 |
| 20260506211805 | 45 | 162 | 3.5 | 7.8 | 0.00 | 0.00 | 0.00 | 45 | 1008.3 |
| 20260506210903 | 46 | 177 | 4.3 | 7.0 | 0.00 | 0.00 | 0.00 | 44 | 1008.1 |
| 20260506210003 | 46 | 195 | 3.5 | 9.6 | 0.00 | 0.00 | 0.00 | 44 | 1008.1 |
| 20260506205404 | 46 | 189 | 4.3 | 13.0 | 0.00 | 0.00 | 0.00 | 43 | 1008.1 |
| 20260506204503 | 47 | 189 | 5.2 | 11.3 | 0.00 | 0.00 | 0.00 | 44 | 1007.9 |
| 20260506203603 | 47 | 194 | 5.2 | 7.8 | 0.00 | 0.00 | 0.00 | 43 | 1007.9 |
| 20260506202705 | 47 | 156 | 3.5 | 9.6 | 0.00 | 0.00 | 0.00 | 43 | 1007.9 |
| 20260506201803 | 48 | 178 | 2.6 | 7.0 | 0.00 | 0.00 | 0.00 | 41 | 1007.7 |
| 20260506200903 | 49 | 191 | 5.2 | 9.6 | 0.00 | 0.00 | 0.00 | 39 | 1007.6 |
| 20260506200003 | 49 | 195 | 7.0 | 9.6 | 0.00 | 0.00 | 0.00 | 37 | 1007.4 |
| 20260506195403 | 49 | 212 | 4.3 | 7.8 | 0.00 | 0.00 | 0.00 | 39 | 1007.6 |
| 20260506194505 | 49 | 175 | 4.3 | 7.8 | 0.00 | 0.00 | 0.00 | 39 | 1007.6 |
| 20260506193603 | 48 | 159 | 1.7 | 5.2 | 0.00 | 0.00 | 0.00 | 40 | 1007.8 |
| 20260506192724 | 49 | 164 | 1.7 | 3.5 | 0.00 | 0.00 | 0.00 | 39 | 1007.6 |
| 20260506191803 | 49 | 157 | 1.7 | 3.5 | 0.00 | 0.00 | 0.00 | 38 | 1007.5 |
| 20260506190903 | 49 | 135 | 0.9 | 3.5 | 0.00 | 0.00 | 0.00 | 38 | 1007.4 |
| 20260506190003 | 50 | 136 | 1.7 | 3.5 | 0.00 | 0.00 | 0.00 | 37 | 1007.3 |
| 20260506185404 | 50 | 135 | 1.7 | 3.5 | 0.00 | 0.00 | 0.00 | 37 | 1007.4 |
| 20260506184524 | 50 | 135 | 0.9 | 1.7 | 0.00 | 0.00 | 0.00 | 37 | 1007.2 |
| 20260506183603 | 51 | 146 | 1.7 | 3.5 | 0.00 | 0.00 | 0.00 | 35 | 1007.6 |
| 20260506182703 | 52 | 155 | 1.7 | 1.7 | 0.00 | 0.00 | 0.00 | 34 | 1007.2 |
| 20260506181803 | 52 | 169 | 0.9 | 3.5 | 0.00 | 0.00 | 0.00 | 33 | 1007.0 |
| 20260506180903 | 53 | 195 | 1.7 | 3.5 | 0.00 | 0.00 | 0.00 | 32 | 1007.2 |
| 20260506180004 | 52 | 166 | 2.6 | 3.5 | 0.00 | 0.00 | 0.00 | 33 | 1007.1 |
| 20260506175406 | 52 | 160 | 0.0 | 3.5 | 0.00 | 0.00 | 0.00 | 33 | 1007.1 |
| 20260506174524 | 52 | 162 | 2.6 | 3.5 | 0.00 | 0.00 | 0.00 | 32 | 1007.1 |
| 20260506173603 | 53 | 145 | 0.9 | 3.5 | 0.00 | 0.00 | 0.00 | 33 | 1007.1 |
| 20260506172703 | 53 | 134 | 1.7 | 3.5 | 0.00 | 0.00 | 0.00 | 33 | 1007.3 |
| 20260506171805 | 53 | 163 | 1.7 | 3.5 | 0.00 | 0.00 | 0.00 | 32 | 1007.3 |
| 20260506170906 | 53 | 158 | 1.7 | 5.2 | 0.00 | 0.00 | 0.00 | 33 | 1007.2 |
| 20260506170003 | 53 | 152 | 1.7 | 5.2 | 0.00 | 0.00 | 0.00 | 33 | 1007.2 |
| 20260506165403 | 53 | 180 | 1.7 | 3.5 | 0.00 | 0.00 | 0.00 | 32 | 1007.4 |
| 20260506164503 | 53 | 165 | 2.6 | 7.0 | 0.00 | 0.00 | 0.00 | 32 | 1007.1 |
| 20260506163603 | 53 | 205 | 3.5 | 6.1 | 0.00 | 0.00 | 0.00 | 32 | 1007.0 |
| 20260506162724 | 53 | 222 | 2.6 | 3.5 | 0.00 | 0.00 | 0.00 | 32 | 1007.5 |
| 20260506161803 | 53 | 292 | 1.7 | 6.1 | 0.00 | 0.00 | 0.00 | 31 | 1007.4 |
| 20260506160903 | 53 | 226 | 1.7 | 9.6 | 0.00 | 0.00 | 0.00 | 30 | 1007.2 |
| 20260506160004 | 53 | 220 | 3.5 | 13.0 | 0.00 | 0.00 | 0.00 | 31 | 1007.3 |
| 20260506155403 | 54 | 203 | 7.0 | 13.0 | 0.00 | 0.00 | 0.00 | 30 | 1007.2 |
| 20260506154503 | 53 | 193 | 5.2 | 9.6 | 0.00 | 0.00 | 0.00 | 31 | 1007.5 |
| 20260506153603 | 53 | 246 | 4.3 | 7.0 | 0.00 | 0.00 | 0.00 | 31 | 1007.4 |
| 20260506152703 | 54 | 261 | 3.5 | 9.6 | 0.00 | 0.00 | 0.00 | 30 | 1007.3 |
| 20260506151803 | 54 | 241 | 4.3 | 9.6 | 0.00 | 0.00 | 0.00 | 31 | 1007.4 |
| 20260506150926 | 55 | 228 | 4.3 | 9.6 | 0.00 | 0.00 | 0.00 | 29 | 1007.5 |
| 20260506150003 | 56 | 214 | 6.1 | 9.6 | 0.00 | 0.00 | 0.00 | 30 | 1007.1 |
| 20260506145424 | 57 | 159 | 4.3 | 7.8 | 0.00 | 0.00 | 0.00 | 28 | 1007.4 |
| 20260506144526 | 53 | 133 | 2.6 | 9.6 | 0.00 | 0.00 | 0.00 | 30 | 1007.6 |
| 20260506143603 | 54 | 150 | 1.7 | 9.6 | 0.00 | 0.00 | 0.00 | 31 | 1007.7 |
| 20260506142703 | 53 | 188 | 2.6 | 5.2 | 0.00 | 0.00 | 0.00 | 31 | 1007.8 |
| 20260506141803 | 53 | 178 | 1.7 | 6.1 | 0.00 | 0.00 | 0.00 | 32 | 1007.7 |
| 20260506140905 | 54 | 211 | 1.7 | 6.1 | 0.00 | 0.00 | 0.00 | 31 | 1008.1 |
| 20260506140024 | 54 | 190 | 3.5 | 6.1 | 0.00 | 0.00 | 0.00 | 30 | 1007.8 |
| 20260506135404 | 53 | 210 | 1.7 | 11.3 | 0.00 | 0.00 | 0.00 | 31 | 1008.0 |
| 20260506134504 | 54 | 184 | 7.8 | 11.3 | 0.00 | 0.00 | 0.00 | 30 | 1007.9 |
| 20260506133603 | 55 | 185 | 3.5 | 14.8 | 0.00 | 0.00 | 0.00 | 30 | 1007.8 |
| 20260506132703 | 54 | 126 | 7.8 | 12.2 | 0.00 | 0.00 | 0.00 | 30 | 1007.9 |
| 20260506131803 | 55 | 117 | 2.6 | 3.5 | 0.00 | 0.00 | 0.00 | 28 | 1007.9 |
| 20260506130905 | 53 | 235 | 2.6 | 7.0 | 0.00 | 0.00 | 0.00 | 31 | 1008.1 |
| 20260506130004 | 52 | 229 | 5.2 | 7.8 | 0.00 | 0.00 | 0.00 | 31 | 1008.2 |
| 20260506125403 | 53 | 198 | 3.5 | 9.6 | 0.00 | 0.00 | 0.00 | 31 | 1008.3 |
| 20260506124505 | 53 | 249 | 6.1 | 12.2 | 0.00 | 0.00 | 0.00 | 30 | 1008.1 |
| 20260506123624 | 54 | 205 | 6.1 | 9.6 | 0.00 | 0.00 | 0.00 | 29 | 1008.2 |
| 20260506122703 | 53 | 152 | 1.7 | 6.1 | 0.00 | 0.00 | 0.00 | 31 | 1008.2 |
| 20260506121803 | 52 | 180 | 3.5 | 9.6 | 0.00 | 0.00 | 0.00 | 31 | 1008.3 |
| 20260506120905 | 52 | 173 | 4.3 | 9.6 | 0.00 | 0.00 | 0.00 | 30 | 1008.4 |
| 20260506120004 | 53 | 178 | 6.1 | 9.6 | 0.00 | 0.00 | 0.00 | 30 | 1008.3 |
| 20260506115424 | 55 | 165 | 5.2 | 9.6 | 0.00 | 0.00 | 0.00 | 31 | 1008.4 |
| 20260506114524 | 54 | 153 | 2.6 | 6.1 | 0.00 | 0.00 | 0.00 | 30 | 1008.3 |
| 20260506113603 | 53 | 98 | 3.5 | 7.0 | 0.00 | 0.00 | 0.00 | 32 | 1008.6 |